Terminal Aerodrome Forecast
Issued by NWS Pueblo, CO

Home | Current Version | Previous Version | Text Only | Print | Product List | Glossary On
Versions: 1 2 3 4 5 6 7 8 9 10 11 12 13 14 15 16 17 18 19
000
FTUS45 KPUB 031733
TAFCOS
TAF
KCOS 031733Z 0318/0418 VRB04KT P6SM FEW008 SCT250
     FM032300 06008KT P6SM BKN110
     FM040200 01007KT P6SM BKN060
     FM040700 36007KT P6SM SCT200=

USA.gov is the U.S. government's official web portal to all federal, state and local government web resources and services.